createdAt,value
2023-04-11T00:03:25.278Z,4.23
2023-04-11T00:08:28.521Z,5.00
2023-04-11T00:13:30.263Z,3.77
2023-04-11T00:18:35.892Z,4.20
2023-04-11T00:23:39.539Z,3.20
2023-04-11T00:28:41.292Z,4.97
2023-04-11T00:33:43.153Z,3.37
2023-04-11T00:38:46.339Z,3.70
2023-04-11T00:43:49.588Z,3.10
2023-04-11T00:48:51.429Z,3.67
2023-04-11T00:53:54.600Z,5.73
2023-04-11T00:58:56.522Z,7.10
2023-04-11T01:04:01.074Z,5.40
2023-04-11T01:09:06.213Z,3.70
2023-04-11T01:14:07.924Z,3.53
2023-04-11T01:19:09.634Z,4.00
2023-04-11T01:24:12.778Z,4.27
2023-04-11T01:29:15.005Z,3.60
2023-04-11T01:34:17.752Z,4.10
2023-04-11T01:39:20.876Z,6.17
2023-04-11T01:44:22.696Z,3.83
2023-04-11T01:49:24.733Z,4.17
2023-04-11T01:54:28.565Z,4.33
2023-04-11T01:59:30.340Z,4.67
2023-04-11T02:04:32.178Z,4.80
2023-04-11T02:09:36.266Z,4.93
2023-04-11T02:14:41.980Z,3.40
2023-04-11T02:19:45.223Z,3.37
2023-04-11T02:24:48.379Z,4.63
2023-04-11T02:29:50.420Z,2.93
2023-04-11T02:34:52.142Z,2.97
2023-04-11T02:39:55.861Z,5.07
2023-04-11T02:44:57.581Z,3.10
2023-04-11T02:50:02.554Z,6.40
2023-04-11T02:55:11.290Z,3.30
2023-04-11T03:00:13.604Z,4.67
2023-04-11T03:05:23.987Z,5.80
2023-04-11T03:10:29.630Z,3.00
2023-04-11T03:15:32.640Z,3.37
2023-04-11T03:20:39.222Z,5.37
2023-04-11T03:25:48.375Z,2.00
2023-04-11T03:30:52.985Z,5.77
2023-04-11T03:35:57.174Z,3.60
2023-04-11T03:41:00.915Z,2.50
2023-04-11T03:46:03.267Z,2.50
2023-04-11T03:51:15.474Z,3.27
2023-04-11T03:56:27.946Z,2.60
2023-04-11T04:01:30.230Z,2.43
2023-04-11T04:06:36.281Z,3.03
2023-04-11T04:11:40.411Z,4.23
2023-04-11T04:16:42.297Z,2.20
2023-04-11T04:21:46.602Z,2.70
2023-04-11T04:26:52.409Z,3.70
2023-04-11T04:32:11.243Z,3.37
2023-04-11T04:37:23.152Z,4.63
2023-04-11T04:42:32.764Z,3.00
2023-04-11T04:47:38.601Z,6.10
2023-04-11T04:52:41.124Z,5.43
2023-04-11T04:57:44.633Z,4.47
2023-04-11T05:02:47.074Z,3.10
2023-04-11T05:07:49.110Z,2.33
2023-04-11T05:12:53.549Z,5.23
2023-04-11T05:17:55.614Z,2.50
2023-04-11T05:22:57.646Z,4.00
2023-04-11T05:28:01.042Z,5.70
2023-04-11T05:33:03.112Z,5.80
2023-04-11T05:38:05.162Z,5.27
2023-04-11T05:43:13.340Z,5.40
2023-04-11T05:48:16.174Z,5.80
2023-04-11T05:53:18.333Z,8.90
2023-04-11T05:58:21.483Z,7.30
2023-04-11T06:03:23.382Z,9.30
2023-04-11T06:08:25.458Z,12.07
2023-04-11T06:13:28.585Z,10.80
2023-04-11T06:18:30.343Z,4.67
2023-04-11T06:23:31.991Z,9.63
2023-04-11T06:28:35.176Z,7.53
2023-04-11T06:33:37.672Z,8.43
2023-04-11T06:38:40.511Z,9.97
2023-04-11T06:43:43.567Z,10.77
2023-04-11T06:48:45.241Z,9.43
2023-04-11T06:53:47.018Z,9.07
2023-04-11T06:58:50.075Z,11.10
2023-04-11T07:03:53.098Z,6.33
2023-04-11T07:08:54.915Z,7.90
2023-04-11T07:13:58.722Z,8.53
2023-04-11T07:19:00.459Z,2.33
2023-04-11T07:24:02.167Z,3.87
2023-04-11T07:29:06.074Z,2.40
2023-04-11T07:34:09.606Z,1.73
2023-04-11T07:39:12.305Z,2.20
2023-04-11T07:44:15.426Z,3.10
2023-04-11T07:49:17.115Z,2.03
2023-04-11T07:54:18.837Z,4.43
2023-04-11T07:59:21.912Z,5.70
2023-04-11T08:04:23.885Z,4.70
2023-04-11T08:09:27.449Z,3.17
2023-04-11T08:14:30.575Z,3.73
2023-04-11T08:19:32.333Z,3.93
2023-04-11T08:24:34.021Z,8.70
2023-04-11T08:29:37.440Z,7.50
2023-04-11T08:34:39.122Z,3.60
2023-04-11T08:39:49.244Z,9.80
2023-04-11T08:45:05.382Z,5.80
2023-04-11T08:50:16.412Z,10.73
2023-04-11T08:55:25.246Z,7.10
2023-04-11T09:01:00.173Z,5.40
2023-04-11T09:06:09.508Z,21.73
2023-04-11T09:11:17.467Z,5.80
2023-04-11T09:16:25.514Z,10.17
2023-04-11T09:21:31.431Z,6.60
2023-04-11T09:26:33.708Z,5.40
2023-04-11T09:31:42.401Z,11.17
2023-04-11T09:36:44.330Z,10.13
2023-04-11T09:41:46.282Z,4.00
2023-04-11T09:46:58.777Z,10.20
2023-04-11T09:52:01.115Z,5.63
2023-04-11T09:57:02.966Z,7.43
2023-04-11T10:02:06.071Z,7.10
2023-04-11T10:07:11.973Z,4.57
2023-04-11T10:12:13.710Z,5.30
2023-04-11T10:17:20.728Z,8.10
2023-04-11T10:22:58.236Z,6.10
2023-04-11T10:28:06.264Z,4.80
2023-04-11T10:33:12.749Z,2.93
2023-04-11T10:38:46.074Z,2.60
2023-04-11T10:43:47.929Z,6.00
2023-04-11T10:48:58.649Z,3.97
2023-04-11T10:54:00.929Z,3.83
2023-04-11T10:59:03.103Z,2.03
2023-04-11T11:04:06.915Z,3.67
2023-04-11T11:09:20.919Z,2.80
2023-04-11T11:14:27.986Z,3.53
2023-04-11T11:19:31.308Z,6.47
2023-04-11T11:24:33.026Z,3.67
2023-04-11T11:29:36.149Z,3.40
2023-04-11T11:34:39.205Z,2.97
2023-04-11T11:39:40.959Z,5.27
2023-04-11T11:44:42.656Z,2.67
2023-04-11T11:49:46.579Z,10.00
2023-04-11T11:54:48.311Z,4.83
2023-04-11T11:59:53.841Z,2.30
2023-04-11T12:04:58.146Z,2.80
2023-04-11T12:10:00.088Z,2.23
2023-04-11T12:15:02.054Z,3.80
2023-04-11T12:20:06.909Z,4.10
2023-04-11T12:25:09.876Z,4.20
2023-04-11T12:30:12.612Z,6.20
2023-04-11T12:35:15.636Z,8.20
2023-04-11T12:40:17.490Z,2.77
2023-04-11T12:45:19.160Z,5.83
2023-04-11T12:50:25.207Z,8.40
2023-04-11T12:55:27.357Z,5.60
2023-04-11T13:00:29.291Z,6.47
2023-04-11T13:05:32.413Z,3.97
2023-04-11T13:10:34.138Z,3.80
2023-04-11T13:15:35.884Z,6.10
2023-04-11T13:20:39.048Z,3.13
2023-04-11T13:25:41.000Z,4.60
2023-04-11T13:30:42.737Z,3.20
2023-04-11T13:35:45.827Z,1.33
2023-04-11T13:40:47.493Z,2.30
2023-04-11T13:45:49.219Z,4.50
2023-04-11T13:50:52.269Z,5.80
2023-04-11T13:55:54.584Z,4.10
2023-04-11T14:00:56.299Z,5.67
2023-04-11T14:05:59.321Z,4.37
2023-04-11T14:11:01.349Z,6.90
2023-04-11T14:16:08.727Z,6.47
2023-04-11T14:21:12.401Z,9.97
2023-04-11T14:26:14.100Z,4.87
2023-04-11T14:31:15.975Z,5.43
2023-04-11T14:36:19.097Z,8.10
2023-04-11T14:41:20.879Z,5.30
2023-04-11T14:46:22.623Z,5.93
2023-04-11T14:51:27.664Z,3.73
2023-04-11T14:56:29.463Z,4.40
2023-04-11T15:01:31.648Z,4.27
2023-04-11T15:06:35.131Z,3.27
2023-04-11T15:11:37.117Z,2.83
2023-04-11T15:16:38.822Z,6.53
2023-04-11T15:21:41.911Z,2.63
2023-04-11T15:26:44.586Z,3.27
2023-04-11T15:31:46.361Z,4.00
2023-04-11T15:36:50.050Z,1.40
2023-04-11T15:41:51.915Z,0.83
2023-04-11T15:46:53.682Z,0.90
2023-04-11T15:51:56.737Z,1.50
2023-04-11T15:57:07.725Z,2.20
2023-04-11T16:02:09.576Z,2.77
2023-04-11T16:07:12.642Z,2.53
2023-04-11T16:12:14.374Z,1.47
2023-04-11T16:17:18.245Z,2.27
2023-04-11T16:22:21.370Z,3.13
2023-04-11T16:27:23.085Z,2.20
2023-04-11T16:32:24.817Z,3.73
2023-04-11T16:37:27.984Z,3.63
2023-04-11T16:42:29.708Z,2.40
2023-04-11T16:47:31.566Z,4.57
2023-04-11T16:52:34.647Z,2.00
2023-04-11T16:57:36.304Z,3.57
2023-04-11T17:02:38.151Z,2.53
2023-04-11T17:07:41.685Z,3.50
2023-04-11T17:12:43.382Z,5.13
2023-04-11T17:17:45.176Z,3.60
2023-04-11T17:22:48.196Z,4.17
2023-04-11T17:27:49.862Z,3.40
2023-04-11T17:32:52.836Z,6.77
2023-04-11T17:37:55.964Z,10.37
2023-04-11T17:42:57.811Z,6.27
2023-04-11T17:47:59.980Z,7.57
2023-04-11T17:53:04.666Z,10.60
2023-04-11T17:58:06.416Z,15.33
2023-04-11T18:03:08.612Z,11.90
2023-04-11T18:08:13.035Z,4.17
2023-04-11T18:13:14.730Z,2.83
2023-04-11T18:18:16.611Z,5.07
2023-04-11T18:23:19.784Z,4.83
2023-04-11T18:28:21.496Z,4.70
2023-04-11T18:33:24.335Z,13.77
2023-04-11T18:38:27.532Z,2.77
2023-04-11T18:43:29.288Z,7.20
2023-04-11T18:48:31.762Z,16.70
2023-04-11T18:53:36.454Z,54.80
2023-04-11T18:58:45.793Z,53.17
2023-04-11T19:03:49.193Z,43.40
2023-04-11T19:08:52.388Z,18.23
2023-04-11T19:13:55.094Z,11.60
2023-04-11T19:18:57.804Z,24.03
2023-04-11T19:24:00.928Z,26.80
2023-04-11T19:29:02.637Z,18.13
2023-04-11T19:34:04.671Z,24.90
2023-04-11T19:39:08.260Z,8.33
2023-04-11T19:44:10.027Z,6.93
2023-04-11T19:49:11.955Z,1.40
2023-04-11T19:54:15.097Z,9.80
2023-04-11T19:59:16.845Z,3.00
2023-04-11T20:04:18.731Z,7.43
2023-04-11T20:09:21.944Z,9.00
2023-04-11T20:14:23.787Z,13.33
2023-04-11T20:19:28.360Z,16.60
2023-04-11T20:24:31.532Z,12.97
2023-04-11T20:29:33.351Z,10.40
2023-04-11T20:34:35.111Z,10.80
2023-04-11T20:39:38.173Z,9.13
2023-04-11T20:44:41.551Z,8.90
2023-04-11T20:49:45.570Z,6.00
2023-04-11T20:54:48.769Z,11.60
2023-04-11T20:59:50.521Z,10.77
2023-04-11T21:04:53.113Z,11.37
2023-04-11T21:09:56.345Z,15.33
2023-04-11T21:14:58.832Z,14.43
2023-04-11T21:20:00.835Z,8.67
2023-04-11T21:25:04.436Z,7.70
2023-04-11T21:30:07.465Z,12.20
2023-04-11T21:35:09.953Z,8.90
2023-04-11T21:40:13.144Z,11.90
2023-04-11T21:45:15.529Z,9.13
2023-04-11T21:50:17.472Z,12.33
2023-04-11T21:55:21.067Z,14.90
2023-04-11T22:00:23.155Z,11.97
2023-04-11T22:05:26.010Z,12.33
2023-04-11T22:10:41.196Z,8.97
2023-04-11T22:16:05.416Z,6.57
2023-04-11T22:21:09.209Z,9.27
2023-04-11T22:26:12.359Z,8.40
2023-04-11T22:31:14.109Z,6.57
2023-04-11T22:36:16.409Z,9.87
2023-04-11T22:41:19.454Z,5.97
2023-04-11T22:46:21.209Z,5.77
2023-04-11T22:51:25.393Z,7.07
2023-04-11T22:56:28.468Z,4.50
2023-04-11T23:01:30.262Z,7.37
2023-04-11T23:06:32.106Z,3.83
2023-04-11T23:11:35.166Z,6.80
2023-04-11T23:16:36.944Z,4.50
2023-04-11T23:21:38.732Z,13.90
2023-04-11T23:26:42.266Z,5.33
2023-04-11T23:31:44.199Z,10.10
2023-04-11T23:36:45.946Z,5.93
2023-04-11T23:41:49.101Z,8.03
2023-04-11T23:46:50.922Z,5.60
2023-04-11T23:51:52.666Z,5.50
2023-04-11T23:56:57.085Z,6.30
